Time;durP1;ratioP1;P1;durP2;ratioP2;P2;SDS_P1;SDS_P2;PMS_P1;PMS_P2;Temp;Humidity;BMP_temperature;BMP_pressure;BME280_temperature;BME280_humidity;BME280_pressure;Samples;Min_cycle;Max_cycle;Signal;HPM_P1;HPM_P2
2021/07/05 00:02:12;;;;;;;1.73;1.20;;;15.70;97.40;;;;;;6278847;22;20223;-92
2021/07/05 00:04:39;;;;;;;1.10;1.08;;;15.70;97.60;;;;;;6251245;22;20177;-92
2021/07/05 00:07:06;;;;;;;1.10;1.00;;;15.70;97.10;;;;;;6250717;22;20207;-91
2021/07/05 00:09:39;;;;;;;1.42;1.00;;;15.70;97.10;;;;;;6278824;22;20177;-92
2021/07/05 00:12:27;;;;;;;1.30;1.20;;;15.70;97.20;;;;;;6244172;22;20187;-93
2021/07/05 00:14:56;;;;;;;1.10;1.00;;;15.60;97.10;;;;;;6278986;22;20252;-92
2021/07/05 00:17:23;;;;;;;1.15;1.15;;;15.60;97.00;;;;;;6279881;22;20215;-92
2021/07/05 00:19:50;;;;;;;20.10;17.25;;;15.60;97.10;;;;;;6278250;22;20508;-92
2021/07/05 00:22:17;;;;;;;4.65;3.95;;;15.60;97.70;;;;;;6278154;22;20686;-92
2021/07/05 00:24:46;;;;;;;5.13;2.45;;;15.70;97.10;;;;;;6278474;22;20252;-92
2021/07/05 00:27:15;;;;;;;2.10;1.83;;;15.70;97.10;;;;;;6276331;22;20283;-93
2021/07/05 00:29:42;;;;;;;2.10;1.90;;;15.70;97.10;;;;;;6277760;22;20176;-92
2021/07/05 00:35:24;;;;;;;0.90;0.90;;;15.60;97.00;;;;;;6250530;22;25935;-92
2021/07/05 00:37:52;;;;;;;3.80;2.28;;;15.50;97.00;;;;;;6246479;22;20179;-92
2021/07/05 00:40:20;;;;;;;1.13;1.05;;;15.60;97.00;;;;;;6276583;22;20195;-92
2021/07/05 00:45:31;;;;;;;2.63;1.27;;;15.50;97.00;;;;;;6259859;22;20591;-93
2021/07/05 00:51:04;;;;;;;3.13;2.45;;;15.70;97.90;;;;;;6276862;22;20211;-92
2021/07/05 00:53:31;;;;;;;4.63;3.78;;;15.80;97.10;;;;;;6215763;22;20283;-93
2021/07/05 00:56:19;;;;;;;12.32;10.98;;;15.80;95.90;;;;;;6256569;22;20554;-92
2021/07/05 00:58:46;;;;;;;126.18;112.18;;;16.00;95.70;;;;;;6276850;22;20259;-93
2021/07/05 01:01:16;;;;;;;8.10;4.85;;;16.20;95.10;;;;;;6223810;22;20196;-93
2021/07/05 01:03:45;;;;;;;2.20;2.00;;;16.10;94.40;;;;;;6277460;22;20210;-92
2021/07/05 01:06:12;;;;;;;4.25;3.20;;;16.00;94.70;;;;;;6276075;22;20678;-93
2021/07/05 01:08:39;;;;;;;7.43;3.75;;;15.90;95.00;;;;;;6280501;22;20235;-93
2021/07/05 01:11:07;;;;;;;5.18;2.58;;;15.80;95.60;;;;;;6248717;22;20206;-92
2021/07/05 01:13:34;;;;;;;1.65;1.30;;;15.80;95.30;;;;;;6250369;22;20667;-92
2021/07/05 01:18:45;;;;;;;2.70;1.95;;;15.70;95.70;;;;;;6234919;22;20247;-92
2021/07/05 01:24:37;;;;;;;3.03;1.13;;;15.50;95.40;;;;;;6239179;22;20188;-91
2021/07/05 01:27:05;;;;;;;2.55;1.40;;;15.60;95.70;;;;;;6270541;22;20267;-92
2021/07/05 01:29:33;;;;;;;2.75;1.30;;;15.70;95.50;;;;;;6275979;22;20204;-92
2021/07/05 01:32:01;;;;;;;4.78;1.38;;;15.70;95.60;;;;;;6275994;22;20231;-92
2021/07/05 01:34:28;;;;;;;2.45;1.20;;;15.60;95.80;;;;;;6276965;22;20279;-93
2021/07/05 01:36:57;;;;;;;2.03;1.25;;;15.60;96.20;;;;;;6214604;22;20260;-93
2021/07/05 01:39:25;;;;;;;1.40;1.30;;;15.50;96.40;;;;;;6276671;22;20204;-93
2021/07/05 01:42:13;;;;;;;3.20;1.33;;;15.50;96.40;;;;;;6212493;22;20169;-92
2021/07/05 01:44:40;;;;;;;2.85;1.05;;;15.50;97.00;;;;;;6276831;22;20250;-92
2021/07/05 01:47:07;;;;;;;1.45;1.33;;;15.50;97.00;;;;;;6224186;22;20220;-93
2021/07/05 01:49:34;;;;;;;2.78;1.33;;;15.70;96.80;;;;;;6276804;22;20259;-93
2021/07/05 01:52:10;;;;;;;1.60;1.50;;;15.80;95.70;;;;;;6275608;22;20236;-93
2021/07/05 01:54:38;;;;;;;1.50;1.40;;;15.80;95.40;;;;;;6276320;22;20220;-93
2021/07/05 01:57:05;;;;;;;2.38;1.30;;;15.60;95.70;;;;;;6249530;22;20271;-93
2021/07/05 01:59:33;;;;;;;3.53;1.20;;;15.60;96.00;;;;;;6250449;22;20546;-93
2021/07/05 02:02:00;;;;;;;2.42;1.65;;;15.40;96.40;;;;;;6274961;22;20231;-92
2021/07/05 02:04:27;;;;;;;2.85;1.55;;;15.40;97.00;;;;;;6275605;22;20173;-92
2021/07/05 02:06:55;;;;;;;1.38;1.23;;;15.30;97.00;;;;;;6274520;22;20257;-93
2021/07/05 02:12:08;;;;;;;1.48;1.30;;;15.40;97.00;;;;;;6275929;22;20261;-92
2021/07/05 02:14:35;;;;;;;4.95;1.60;;;15.60;97.00;;;;;;6254747;22;20247;-92
2021/07/05 02:17:03;;;;;;;2.13;1.50;;;15.60;96.70;;;;;;6275565;22;20232;-91
2021/07/05 02:19:30;;;;;;;3.00;1.40;;;15.80;96.50;;;;;;6199181;22;20173;-91
2021/07/05 02:21:57;;;;;;;1.20;1.20;;;15.80;96.00;;;;;;6223325;22;20533;-92
2021/07/05 02:24:26;;;;;;;2.25;1.63;;;15.80;96.20;;;;;;6249136;22;20238;-91
2021/07/05 02:26:54;;;;;;;1.85;1.40;;;15.90;96.10;;;;;;6272433;22;20224;-92
2021/07/05 02:29:21;;;;;;;1.95;1.40;;;16.00;96.20;;;;;;6248845;22;20283;-92
2021/07/05 02:31:49;;;;;;;2.08;1.10;;;15.90;95.50;;;;;;6275532;22;20299;-91
2021/07/05 02:34:16;;;;;;;1.45;1.20;;;15.80;95.50;;;;;;6275928;22;20251;-92
2021/07/05 02:36:44;;;;;;;1.40;1.27;;;15.80;96.30;;;;;;6228379;22;20279;-92
2021/07/05 02:39:11;;;;;;;2.28;1.33;;;15.70;96.60;;;;;;6250046;22;20532;-92
2021/07/05 02:44:55;;;;;;;2.85;1.50;;;15.70;96.90;;;;;;6205321;22;20168;-92
2021/07/05 02:47:22;;;;;;;1.30;1.20;;;15.60;97.00;;;;;;6275462;22;20458;-92
2021/07/05 02:49:49;;;;;;;1.52;1.42;;;15.80;97.10;;;;;;6246615;22;20204;-91
2021/07/05 02:52:16;;;;;;;2.35;1.40;;;16.00;96.30;;;;;;6278291;22;20215;-92
2021/07/05 02:54:44;;;;;;;1.85;1.40;;;16.00;95.80;;;;;;6278386;22;20623;-92
2021/07/05 02:57:33;;;;;;;1.58;1.40;;;16.00;96.20;;;;;;6217071;22;20172;-91
2021/07/05 03:00:02;;;;;;;1.50;1.40;;;15.80;96.10;;;;;;6277137;22;20259;-92
2021/07/05 03:02:31;;;;;;;1.23;1.20;;;15.80;96.30;;;;;;6276518;22;20195;-91
2021/07/05 03:05:00;;;;;;;2.58;1.40;;;15.90;96.10;;;;;;6250321;22;20161;-92
2021/07/05 03:07:47;;;;;;;2.53;1.30;;;15.80;96.10;;;;;;6248812;22;20203;-92
2021/07/05 03:15:40;;;;;;;1.40;1.30;;;15.70;96.90;;;;;;6233436;22;20200;-92
2021/07/05 03:18:08;;;;;;;2.53;1.45;;;15.80;96.50;;;;;;6276249;22;20177;-92
2021/07/05 03:20:37;;;;;;;1.90;1.40;;;15.70;96.20;;;;;;6193329;22;20283;-92
2021/07/05 03:23:06;;;;;;;2.47;1.30;;;15.70;96.40;;;;;;6275653;22;20255;-92
2021/07/05 03:33:41;;;;;;;2.15;1.42;;;15.80;95.90;;;;;;6243548;22;20169;-93
2021/07/05 03:36:08;;;;;;;3.70;1.60;;;15.70;95.80;;;;;;6274689;22;20232;-92
2021/07/05 03:38:36;;;;;;;2.05;1.58;;;15.50;96.30;;;;;;6248816;22;20177;-91
2021/07/05 03:41:03;;;;;;;2.42;1.50;;;15.30;97.00;;;;;;6275094;22;20250;-92
2021/07/05 03:43:31;;;;;;;2.08;1.50;;;15.30;97.00;;;;;;6247909;22;20485;-91
2021/07/05 03:45:59;;;;;;;2.05;1.65;;;15.40;97.00;;;;;;6276042;22;20570;-91
2021/07/05 03:48:26;;;;;;;2.25;1.73;;;15.60;96.50;;;;;;6283737;22;20291;-92
2021/07/05 03:50:53;;;;;;;1.50;1.40;;;15.60;96.20;;;;;;6279193;22;20296;-92
2021/07/05 03:53:21;;;;;;;1.80;1.70;;;15.60;96.20;;;;;;6252624;22;20579;-92
2021/07/05 03:56:01;;;;;;;2.00;1.48;;;15.60;95.70;;;;;;6278331;22;20216;-92
2021/07/05 03:58:28;;;;;;;3.15;1.55;;;15.80;95.30;;;;;;6280996;22;20208;-93
2021/07/05 04:03:38;;;;;;;2.30;1.50;;;15.70;95.20;;;;;;6256141;22;20204;-92
2021/07/05 04:06:05;;;;;;;1.67;1.58;;;15.60;95.20;;;;;;6282200;22;20201;-92
2021/07/05 04:11:13;;;;;;;3.38;1.65;;;15.20;96.00;;;;;;6255290;22;20192;-91
2021/07/05 04:13:43;;;;;;;1.50;1.40;;;15.00;96.90;;;;;;6252781;22;20231;-91
2021/07/05 04:19:17;;;;;;;1.75;1.40;;;15.30;97.00;;;;;;6186169;22;20175;-91
2021/07/05 04:21:44;;;;;;;2.03;1.50;;;15.50;96.30;;;;;;6280059;22;20234;-90
2021/07/05 04:24:11;;;;;;;2.25;1.60;;;15.40;96.20;;;;;;6253913;22;20255;-91
2021/07/05 04:26:38;;;;;;;2.75;1.50;;;15.50;96.10;;;;;;6282866;22;20207;-92
2021/07/05 04:29:06;;;;;;;1.60;1.50;;;15.60;95.90;;;;;;6283513;22;20616;-91
2021/07/05 04:31:35;;;;;;;1.73;1.50;;;15.60;95.50;;;;;;6278744;22;20219;-91
2021/07/05 04:34:46;;;;;;;1.77;1.42;;;15.50;96.00;;;;;;6285249;22;20179;-92
2021/07/05 04:37:13;;;;;;;1.90;1.58;;;15.40;96.40;;;;;;6289147;22;20220;-92
2021/07/05 04:39:40;;;;;;;1.83;1.40;;;15.30;97.00;;;;;;6291477;22;20168;-91
2021/07/05 04:42:08;;;;;;;2.58;1.30;;;15.40;97.00;;;;;;6255108;22;20224;-92
2021/07/05 04:44:46;;;;;;;2.90;1.60;;;15.30;97.00;;;;;;6286995;22;20199;-92
2021/07/05 04:48:23;;;;;;;2.67;1.50;;;15.40;97.00;;;;;;6254691;22;20251;-92
2021/07/05 05:03:55;;;;;;;3.55;1.33;;;15.70;96.60;;;;;;6279411;22;20258;-92
2021/07/05 05:09:08;;;;;;;2.70;1.50;;;15.90;96.50;;;;;;6246588;22;20239;-93
2021/07/05 05:11:36;;;;;;;2.67;1.70;;;16.00;96.30;;;;;;6277465;22;20231;-93
2021/07/05 05:14:03;;;;;;;1.75;1.40;;;16.00;96.40;;;;;;6284986;22;20176;-92
2021/07/05 05:20:27;;;;;;;3.97;1.88;;;16.30;95.70;;;;;;6291859;22;20167;-92
2021/07/05 05:26:31;;;;;;;1.63;1.42;;;16.40;95.20;;;;;;6282822;22;20164;-89
2021/07/05 05:28:59;;;;;;;1.30;1.20;;;16.40;94.90;;;;;;6285097;22;20188;-92
2021/07/05 05:31:26;;;;;;;4.82;1.60;;;16.40;95.00;;;;;;6263978;22;20180;-91
2021/07/05 05:41:39;;;;;;;2.65;1.45;;;16.60;94.80;;;;;;6282669;22;20216;-92
2021/07/05 05:47:35;;;;;;;1.80;1.40;;;17.10;93.00;;;;;;6283100;22;20168;-92
2021/07/05 05:50:06;;;;;;;2.67;1.35;;;17.30;92.00;;;;;;6285729;22;20216;-93
2021/07/05 05:52:33;;;;;;;1.42;1.33;;;17.40;92.00;;;;;;6285751;22;20229;-90
2021/07/05 05:55:00;;;;;;;3.33;1.45;;;17.40;91.30;;;;;;6279886;22;20224;-92
2021/07/05 05:57:28;;;;;;;5.00;1.52;;;17.40;90.90;;;;;;6279455;22;20235;-90
2021/07/05 05:59:56;;;;;;;2.50;1.50;;;17.30;91.10;;;;;;6279482;22;20181;-93
2021/07/05 06:02:23;;;;;;;2.22;1.48;;;17.30;91.60;;;;;;6223726;22;20186;-92
2021/07/05 06:07:59;;;;;;;2.60;1.20;;;17.40;92.00;;;;;;6276133;22;20546;-91
2021/07/05 06:10:26;;;;;;;2.22;1.23;;;17.40;91.50;;;;;;6276412;22;20223;-92
2021/07/05 06:12:58;;;;;;;1.63;1.50;;;17.50;91.40;;;;;;6277651;22;20204;-92
2021/07/05 06:15:26;;;;;;;2.75;1.25;;;17.60;90.90;;;;;;6279669;22;20240;-90
2021/07/05 06:17:53;;;;;;;1.90;1.20;;;17.60;90.70;;;;;;6279815;22;20207;-91
2021/07/05 06:20:26;;;;;;;2.72;1.48;;;17.60;90.80;;;;;;6279367;22;20251;-91
2021/07/05 06:22:59;;;;;;;1.30;1.20;;;17.80;90.50;;;;;;6281607;22;20363;-91
2021/07/05 06:25:26;;;;;;;1.65;1.30;;;17.90;90.20;;;;;;6277805;22;20220;-90
2021/07/05 06:27:54;;;;;;;2.45;1.30;;;18.00;90.10;;;;;;6276928;22;20172;-90
2021/07/05 06:30:21;;;;;;;2.35;1.40;;;18.00;90.10;;;;;;6277952;22;20223;-90
2021/07/05 06:32:48;;;;;;;1.40;1.30;;;18.00;90.10;;;;;;6277676;22;20239;-90
2021/07/05 06:35:16;;;;;;;3.33;1.42;;;18.10;90.20;;;;;;6277379;22;20652;-90
2021/07/05 06:37:44;;;;;;;3.08;1.38;;;18.10;89.90;;;;;;6278862;22;20235;-90
2021/07/05 06:40:12;;;;;;;3.28;1.40;;;18.20;88.40;;;;;;6277074;22;20251;-91
2021/07/05 06:42:41;;;;;;;2.08;1.40;;;18.10;87.60;;;;;;6278001;22;20207;-90
2021/07/05 06:45:08;;;;;;;1.30;1.13;;;18.20;86.80;;;;;;6275938;22;20165;-91
2021/07/05 06:47:36;;;;;;;2.38;1.50;;;18.30;85.10;;;;;;6276685;22;20215;-91
2021/07/05 06:50:04;;;;;;;4.05;1.60;;;18.50;86.40;;;;;;6277417;22;20280;-90
2021/07/05 06:52:33;;;;;;;2.55;1.33;;;18.60;87.20;;;;;;6278129;22;20259;-90
2021/07/05 06:55:02;;;;;;;1.42;1.33;;;18.70;84.80;;;;;;6278780;22;20636;-91
2021/07/05 06:57:33;;;;;;;1.08;1.08;;;18.80;84.30;;;;;;6276101;22;20254;-91
2021/07/05 07:00:01;;;;;;;1.92;1.30;;;18.90;83.30;;;;;;6276204;22;20165;-91
2021/07/05 07:02:28;;;;;;;2.42;1.30;;;19.00;80.10;;;;;;6277564;22;20224;-91
2021/07/05 07:04:55;;;;;;;2.22;1.30;;;19.10;79.10;;;;;;6277338;22;20282;-91
2021/07/05 07:07:22;;;;;;;3.47;1.38;;;19.10;80.20;;;;;;6275109;22;20228;-92
2021/07/05 07:09:49;;;;;;;2.55;1.65;;;19.30;80.40;;;;;;6276116;22;20246;-91
2021/07/05 07:12:18;;;;;;;1.30;1.23;;;19.40;78.60;;;;;;6277743;22;20215;-91
2021/07/05 07:14:45;;;;;;;4.35;1.30;;;19.60;72.70;;;;;;6282368;22;20215;-92
2021/07/05 07:17:19;;;;;;;2.33;1.55;;;20.60;66.30;;;;;;6276446;22;20204;-89
2021/07/05 07:19:46;;;;;;;1.50;1.30;;;22.40;58.10;;;;;;6276339;22;20203;-87
2021/07/05 07:22:13;;;;;;;3.42;1.60;;;25.10;44.80;;;;;;6276333;22;20231;-87
2021/07/05 07:24:41;;;;;;;34.55;14.95;;;27.60;35.40;;;;;;6277748;22;20172;-88
2021/07/05 07:27:08;;;;;;;23.23;11.90;;;29.00;28.80;;;;;;6276460;22;20198;-88
2021/07/05 07:29:36;;;;;;;7.47;4.53;;;29.40;28.30;;;;;;6278437;22;20192;-88
2021/07/05 07:32:03;;;;;;;16.15;8.20;;;29.10;27.40;;;;;;6277125;22;20267;-88
2021/07/05 07:34:31;;;;;;;2.63;1.65;;;28.10;29.90;;;;;;6277686;22;20215;-88
2021/07/05 07:37:01;;;;;;;2.45;2.03;;;26.30;34.60;;;;;;6279502;22;20278;-89
2021/07/05 07:39:32;;;;;;;7.93;4.07;;;25.00;36.20;;;;;;6278527;22;20227;-88
2021/07/05 07:41:59;;;;;;;1.50;1.40;;;24.40;38.20;;;;;;6277708;22;20196;-87
2021/07/05 07:44:26;;;;;;;1.98;1.42;;;24.00;39.30;;;;;;6277154;22;20680;-86
2021/07/05 07:46:54;;;;;;;2.03;1.40;;;23.80;42.90;;;;;;6275596;22;20271;-86
2021/07/05 07:49:21;;;;;;;1.60;1.50;;;23.50;43.00;;;;;;6277461;22;20283;-88
2021/07/05 07:51:48;;;;;;;1.42;1.33;;;23.10;43.30;;;;;;6277411;22;20287;-86
2021/07/05 07:54:15;;;;;;;1.55;1.35;;;23.20;42.90;;;;;;6279435;22;20224;-88
2021/07/05 07:56:42;;;;;;;1.35;1.25;;;23.50;43.40;;;;;;6278186;22;20219;-87
2021/07/05 07:59:09;;;;;;;3.65;1.52;;;23.70;43.50;;;;;;6278460;22;20180;-87
2021/07/05 08:01:36;;;;;;;8.75;3.50;;;23.60;44.60;;;;;;6277704;22;20287;-87
2021/07/05 08:04:05;;;;;;;7.30;3.58;;;23.50;42.70;;;;;;6277572;22;20172;-87
2021/07/05 08:06:32;;;;;;;19.92;4.50;;;23.90;43.70;;;;;;6276258;22;20228;-85
2021/07/05 08:09:00;;;;;;;4.30;2.30;;;24.50;41.50;;;;;;6276931;22;20242;-86
2021/07/05 08:11:27;;;;;;;3.35;1.52;;;24.90;40.80;;;;;;6277398;22;20254;-87
2021/07/05 08:13:55;;;;;;;3.60;1.48;;;25.30;36.40;;;;;;6276852;22;20236;-87
2021/07/05 08:16:23;;;;;;;1.10;1.00;;;25.50;36.50;;;;;;6277043;22;20224;-86
2021/07/05 08:18:49;;;;;;;1.40;1.30;;;25.60;34.20;;;;;;6277966;22;20200;-87
2021/07/05 08:21:19;;;;;;;8.90;3.03;;;25.70;36.70;;;;;;6276306;22;20232;-87
2021/07/05 08:23:47;;;;;;;5.20;1.45;;;26.40;37.10;;;;;;6274510;22;20157;-88
2021/07/05 08:26:14;;;;;;;2.35;1.60;;;28.00;31.10;;;;;;6276425;22;20243;-88
2021/07/05 08:28:43;;;;;;;1.60;1.50;;;28.50;26.60;;;;;;6279002;22;20632;-87
2021/07/05 08:31:10;;;;;;;5.25;2.17;;;29.50;25.10;;;;;;6275711;22;20234;-87
2021/07/05 08:33:43;;;;;;;1.50;1.40;;;28.90;26.40;;;;;;6276458;22;20172;-87
2021/07/05 08:36:10;;;;;;;1.40;1.30;;;28.20;26.50;;;;;;6275813;22;20200;-88
2021/07/05 08:38:38;;;;;;;2.15;1.50;;;28.90;25.80;;;;;;6275956;22;20206;-88
2021/07/05 08:41:05;;;;;;;3.55;3.25;;;28.60;25.80;;;;;;6275544;22;20286;-89
2021/07/05 08:43:33;;;;;;;9.57;7.70;;;29.00;26.30;;;;;;6276640;22;20627;-87
2021/07/05 08:46:02;;;;;;;2.70;2.50;;;30.00;24.10;;;;;;6276445;22;20299;-88
2021/07/05 08:48:32;;;;;;;2.55;1.50;;;30.20;22.60;;;;;;6276327;22;20266;-87
2021/07/05 08:51:00;;;;;;;4.25;3.95;;;30.80;21.50;;;;;;6275932;22;20228;-87
2021/07/05 08:53:27;;;;;;;37.80;34.55;;;31.60;20.40;;;;;;6275862;22;20196;-87
2021/07/05 08:55:56;;;;;;;698.47;213.27;;;32.30;19.30;;;;;;6275394;22;20220;-88
2021/07/05 08:58:23;;;;;;;5.57;3.67;;;32.80;19.00;;;;;;6276214;22;20179;-87
2021/07/05 09:00:51;;;;;;;2.55;1.75;;;31.90;18.60;;;;;;6276016;22;20234;-88
2021/07/05 09:03:23;;;;;;;2.70;2.05;;;30.90;20.00;;;;;;6275972;22;20236;-87
2021/07/05 09:06:09;;;;;;;14.45;8.82;;;30.10;23.50;;;;;;6275968;22;20279;-88
2021/07/05 09:08:39;;;;;;;4.68;2.35;;;28.90;26.20;;;;;;6278497;22;20215;-89
2021/07/05 09:11:09;;;;;;;2.17;2.00;;;28.20;27.30;;;;;;6276297;22;20279;-88
2021/07/05 09:13:49;;;;;;;1.92;1.52;;;28.00;28.00;;;;;;6276064;22;20183;-87
2021/07/05 09:16:38;;;;;;;4.53;2.20;;;27.80;27.40;;;;;;6274860;22;20768;-88
2021/07/05 09:19:15;;;;;;;3.65;3.35;;;27.70;28.30;;;;;;6266802;22;20716;-88
2021/07/05 09:21:46;;;;;;;1.77;1.38;;;27.70;28.60;;;;;;6275573;22;20275;-88
2021/07/05 09:24:14;;;;;;;1.52;1.42;;;27.30;28.70;;;;;;6277025;22;20157;-88
2021/07/05 09:26:44;;;;;;;3.92;2.75;;;26.60;31.00;;;;;;6274174;22;20710;-89
2021/07/05 09:29:21;;;;;;;3.00;2.80;;;26.10;33.80;;;;;;6275806;22;20243;-88
2021/07/05 09:31:52;;;;;;;3.92;3.25;;;25.60;36.60;;;;;;6275311;22;20203;-88
2021/07/05 09:34:22;;;;;;;2.35;2.15;;;25.20;36.30;;;;;;6275962;22;20248;-86
2021/07/05 09:36:51;;;;;;;2.33;1.60;;;24.60;36.00;;;;;;6274195;22;20204;-88
2021/07/05 09:39:20;;;;;;;2.50;1.88;;;24.40;36.50;;;;;;6277851;22;20181;-86
2021/07/05 09:41:50;;;;;;;2.05;1.42;;;24.20;40.80;;;;;;6282169;22;20209;-84
2021/07/05 09:44:19;;;;;;;1.83;1.70;;;24.10;40.60;;;;;;6282047;22;20200;-85
2021/07/05 09:46:49;;;;;;;2.83;2.63;;;24.30;39.90;;;;;;6282634;22;20224;-86
2021/07/05 09:49:20;;;;;;;5.88;3.20;;;24.70;36.00;;;;;;6280942;22;20651;-86
2021/07/05 09:52:00;;;;;;;5.15;4.47;;;24.90;36.20;;;;;;6274539;22;20265;-88
2021/07/05 09:54:27;;;;;;;2.15;1.50;;;25.20;36.30;;;;;;6275830;22;20192;-87
2021/07/05 09:56:56;;;;;;;1.58;1.30;;;25.70;36.70;;;;;;6274506;22;20648;-87
2021/07/05 09:59:24;;;;;;;2.30;1.48;;;26.10;34.50;;;;;;6275504;22;20204;-87
2021/07/05 10:01:52;;;;;;;2.05;1.50;;;25.90;31.50;;;;;;6277071;22;20204;-86
2021/07/05 10:04:26;;;;;;;2.05;1.40;;;26.30;33.10;;;;;;6281595;22;20601;-89
2021/07/05 10:06:54;;;;;;;1.70;1.52;;;26.50;33.00;;;;;;6275081;22;20200;-90
2021/07/05 10:09:32;;;;;;;1.40;1.30;;;26.40;30.90;;;;;;6276136;22;20211;-90
2021/07/05 10:12:18;;;;;;;2.10;1.52;;;26.60;30.10;;;;;;6274950;22;20543;-89
2021/07/05 10:14:54;;;;;;;5.18;4.72;;;26.70;31.30;;;;;;6275740;22;20246;-91
2021/07/05 10:17:21;;;;;;;3.25;1.48;;;27.20;31.80;;;;;;6274260;22;20203;-91
2021/07/05 10:19:48;;;;;;;1.90;1.30;;;27.10;29.90;;;;;;6276217;22;20222;-87
2021/07/05 10:22:16;;;;;;;3.95;3.65;;;27.50;29.10;;;;;;6275129;22;20275;-90
2021/07/05 10:24:45;;;;;;;3.30;3.08;;;28.50;27.80;;;;;;6275182;22;20263;-89
2021/07/05 10:27:13;;;;;;;2.03;1.55;;;28.50;25.70;;;;;;6274964;22;20200;-90
2021/07/05 10:29:42;;;;;;;1.80;1.30;;;28.40;28.40;;;;;;6275916;22;20227;-89
2021/07/05 10:32:11;;;;;;;1.60;1.50;;;28.90;28.50;;;;;;6276286;22;20227;-88
2021/07/05 10:34:39;;;;;;;1.55;1.45;;;29.40;25.80;;;;;;6278368;22;20196;-88
2021/07/05 10:37:14;;;;;;;15.25;13.90;;;29.70;24.60;;;;;;6275713;22;20287;-88
2021/07/05 10:39:42;;;;;;;5.07;4.68;;;30.00;24.80;;;;;;6275581;22;20243;-87
2021/07/05 10:42:30;;;;;;;3.20;2.90;;;30.20;23.40;;;;;;6274843;22;20726;-89
2021/07/05 10:44:57;;;;;;;1.77;1.60;;;29.90;24.60;;;;;;6275467;22;20254;-87
2021/07/05 10:47:52;;;;;;;2.42;1.70;;;29.30;23.70;;;;;;6277130;22;20223;-88
2021/07/05 10:50:56;;;;;;;2.22;1.80;;;28.30;26.50;;;;;;6277677;22;20214;-88
2021/07/05 10:53:52;;;;;;;4.53;1.73;;;28.10;28.30;;;;;;6279076;22;20655;-89
2021/07/05 10:56:31;;;;;;;2.78;1.50;;;28.20;26.50;;;;;;6267314;22;20519;-88
2021/07/05 10:59:39;;;;;;;4.22;2.47;;;28.00;28.60;;;;;;6282414;22;20492;-87
2021/07/05 11:02:43;;;;;;;1.58;1.48;;;28.20;26.50;;;;;;6284554;22;20204;-86
2021/07/05 11:05:41;;;;;;;3.15;1.40;;;27.60;25.40;;;;;;6282189;22;20195;-88
2021/07/05 11:08:26;;;;;;;1.48;1.20;;;27.60;27.70;;;;;;6257479;22;20635;-88
2021/07/05 11:11:23;;;;;;;1.30;1.20;;;27.80;26.50;;;;;;6283025;22;20200;-89
2021/07/05 11:14:14;;;;;;;2.65;1.70;;;27.50;26.00;;;;;;6215498;22;20176;-88
2021/07/05 11:17:23;;;;;;;1.40;1.30;;;27.50;27.50;;;;;;6281006;22;20273;-89
2021/07/05 11:19:52;;;;;;;1.42;1.33;;;27.50;26.70;;;;;;6281904;22;20164;-88
2021/07/05 11:22:27;;;;;;;3.38;1.55;;;28.00;27.10;;;;;;6281370;22;20196;-87
2021/07/05 11:25:04;;;;;;;3.92;3.63;;;27.80;25.60;;;;;;6281667;22;20167;-88
2021/07/05 11:27:44;;;;;;;1.58;1.48;;;27.40;27.30;;;;;;6281841;22;20206;-87
2021/07/05 11:30:19;;;;;;;1.13;1.13;;;27.50;27.10;;;;;;6281306;22;20230;-88
2021/07/05 11:32:50;;;;;;;2.45;2.15;;;27.40;26.90;;;;;;6283232;22;20202;-87
2021/07/05 11:35:41;;;;;;;1.77;1.63;;;27.60;26.20;;;;;;6282530;22;20160;-87
2021/07/05 11:38:12;;;;;;;2.03;1.83;;;27.80;27.70;;;;;;6281491;22;20461;-89
2021/07/05 11:40:58;;;;;;;2.55;1.70;;;27.70;26.10;;;;;;6281967;22;20299;-88
2021/07/05 11:43:47;;;;;;;1.88;1.60;;;27.60;26.10;;;;;;6282279;22;20161;-89
2021/07/05 11:46:39;;;;;;;3.15;1.30;;;27.90;26.70;;;;;;6282262;22;20202;-88
2021/07/05 11:49:08;;;;;;;4.18;1.40;;;27.80;24.10;;;;;;6284168;22;20176;-88
2021/07/05 11:51:38;;;;;;;1.67;1.33;;;27.20;25.80;;;;;;6282003;22;20234;-89
2021/07/05 11:54:07;;;;;;;3.20;1.42;;;27.30;25.90;;;;;;6283291;22;20220;-88
2021/07/05 11:56:39;;;;;;;2.65;1.50;;;27.60;26.10;;;;;;6282679;22;20239;-88
2021/07/05 11:59:08;;;;;;;2.03;1.20;;;27.40;26.00;;;;;;6283896;22;20176;-87
2021/07/05 12:01:37;;;;;;;3.47;1.75;;;27.40;26.10;;;;;;6282333;22;20234;-88
2021/07/05 12:04:05;;;;;;;5.03;2.22;;;27.50;26.00;;;;;;6285140;22;20541;-87
2021/07/05 12:06:34;;;;;;;1.48;1.38;;;27.50;25.70;;;;;;6285454;22;20228;-88
2021/07/05 12:09:04;;;;;;;1.80;1.40;;;27.40;26.40;;;;;;6285593;22;20204;-89
2021/07/05 12:11:41;;;;;;;1.40;1.30;;;27.20;28.20;;;;;;6282953;22;20230;-88
2021/07/05 12:14:12;;;;;;;6.10;2.17;;;27.20;28.30;;;;;;6285107;22;20218;-89
2021/07/05 12:16:41;;;;;;;1.52;1.42;;;26.90;27.80;;;;;;6282732;22;20208;-86
2021/07/05 12:19:12;;;;;;;2.10;1.20;;;26.40;30.40;;;;;;6282300;22;21019;-87
2021/07/05 12:21:43;;;;;;;2.13;1.60;;;26.10;32.10;;;;;;6280401;22;20200;-85
2021/07/05 12:24:17;;;;;;;3.10;1.70;;;25.70;35.10;;;;;;6280848;22;20176;-84
2021/07/05 12:26:47;;;;;;;1.75;1.63;;;25.40;35.70;;;;;;6281146;22;20224;-86
2021/07/05 12:29:17;;;;;;;1.90;1.75;;;25.50;36.60;;;;;;6282477;22;20173;-85
2021/07/05 12:31:57;;;;;;;1.67;1.58;;;25.40;34.70;;;;;;6281193;22;20216;-86
2021/07/05 12:34:49;;;;;;;2.08;1.50;;;25.50;34.70;;;;;;6282058;22;20190;-85
2021/07/05 12:37:25;;;;;;;2.72;1.65;;;25.30;34.80;;;;;;6281994;22;20222;-86
2021/07/05 12:39:56;;;;;;;2.22;1.50;;;25.10;36.30;;;;;;6285117;22;20186;-86
2021/07/05 12:42:39;;;;;;;1.98;1.67;;;25.00;36.30;;;;;;6286322;22;20232;-89
2021/07/05 12:45:10;;;;;;;2.80;1.40;;;24.90;36.20;;;;;;6286012;22;20164;-87
2021/07/05 12:47:59;;;;;;;1.40;1.30;;;24.70;36.00;;;;;;6286722;22;20196;-88
2021/07/05 12:50:28;;;;;;;2.42;1.70;;;24.50;35.80;;;;;;6285600;22;20191;-88
2021/07/05 12:53:19;;;;;;;1.80;1.40;;;23.90;35.40;;;;;;6287298;22;20196;-87
2021/07/05 12:56:01;;;;;;;3.33;1.50;;;24.00;35.40;;;;;;6286820;22;20200;-87
2021/07/05 12:58:36;;;;;;;1.60;1.50;;;24.20;37.50;;;;;;6287607;22;20218;-88
2021/07/05 13:01:03;;;;;;;3.85;1.42;;;24.50;37.00;;;;;;6286517;22;20199;-88
2021/07/05 13:03:30;;;;;;;1.70;1.60;;;24.70;36.80;;;;;;6285877;22;20505;-88
2021/07/05 13:06:05;;;;;;;2.33;1.40;;;24.80;36.10;;;;;;6285631;22;20204;-88
2021/07/05 13:08:35;;;;;;;2.58;1.40;;;24.90;36.20;;;;;;6285625;22;20643;-90
2021/07/05 13:11:11;;;;;;;2.53;1.60;;;24.80;36.10;;;;;;6283026;22;20204;-88
2021/07/05 13:13:40;;;;;;;2.15;1.60;;;24.80;36.10;;;;;;6285994;22;20207;-88
2021/07/05 13:16:22;;;;;;;1.38;1.27;;;24.80;36.10;;;;;;6283042;22;20683;-87
2021/07/05 13:18:51;;;;;;;1.83;1.73;;;25.00;36.20;;;;;;6284070;22;20165;-87
2021/07/05 13:21:31;;;;;;;1.92;1.48;;;25.10;36.30;;;;;;6281551;22;20208;-87
2021/07/05 13:24:16;;;;;;;3.17;1.55;;;25.40;35.80;;;;;;6283993;22;20517;-87
2021/07/05 13:26:46;;;;;;;1.48;1.38;;;25.30;36.40;;;;;;6281420;22;20204;-88
2021/07/05 13:29:19;;;;;;;2.60;1.40;;;25.30;33.90;;;;;;6281515;22;20267;-87
2021/07/05 13:31:47;;;;;;;1.98;1.58;;;25.30;36.40;;;;;;6281301;22;20228;-86
2021/07/05 13:34:36;;;;;;;1.92;1.75;;;25.20;34.90;;;;;;6282240;22;20229;-85
2021/07/05 13:37:12;;;;;;;1.88;1.70;;;25.20;36.30;;;;;;6282442;22;20205;-86
2021/07/05 13:39:42;;;;;;;2.42;2.20;;;25.20;36.00;;;;;;6282546;22;20166;-85
2021/07/05 13:42:11;;;;;;;1.58;1.48;;;25.50;36.50;;;;;;6280799;22;20223;-86
2021/07/05 13:44:40;;;;;;;4.75;4.22;;;25.70;36.00;;;;;;6280527;22;20177;-87
2021/07/05 13:47:19;;;;;;;8.40;7.60;;;25.60;36.50;;;;;;6279694;22;20263;-86
2021/07/05 13:50:11;;;;;;;1.50;1.40;;;25.60;35.80;;;;;;6279574;22;20255;-86
2021/07/05 13:52:41;;;;;;;1.73;1.63;;;25.40;34.80;;;;;;6278435;22;20199;-86
2021/07/05 13:55:29;;;;;;;2.70;2.50;;;25.50;36.60;;;;;;6281256;22;20197;-86
2021/07/05 13:57:58;;;;;;;3.20;1.50;;;25.50;35.40;;;;;;6281194;22;20212;-87
2021/07/05 14:00:25;;;;;;;8.00;3.28;;;25.50;36.50;;;;;;6281302;22;20219;-87
2021/07/05 14:02:52;;;;;;;2.65;1.33;;;25.80;35.00;;;;;;6283035;22;20208;-87
2021/07/05 14:05:21;;;;;;;2.47;1.80;;;25.80;34.10;;;;;;6254573;22;20642;-86
2021/07/05 14:07:49;;;;;;;2.50;1.50;;;25.80;34.40;;;;;;6280871;22;20255;-86
2021/07/05 14:10:17;;;;;;;2.95;1.70;;;25.80;32.70;;;;;;6278998;22;20248;-87
2021/07/05 14:12:45;;;;;;;2.80;1.60;;;25.90;33.90;;;;;;6280047;22;20187;-85
2021/07/05 14:15:13;;;;;;;2.45;1.50;;;26.00;33.30;;;;;;6279142;22;20203;-85
2021/07/05 14:17:41;;;;;;;3.00;1.83;;;26.10;34.00;;;;;;6277588;22;20172;-84
2021/07/05 14:20:10;;;;;;;2.75;1.30;;;25.90;34.10;;;;;;6280612;22;20188;-87
2021/07/05 14:22:38;;;;;;;2.17;1.10;;;25.90;34.30;;;;;;6280643;22;20207;-85
2021/07/05 14:25:09;;;;;;;2.45;1.55;;;25.60;32.20;;;;;;6282017;22;20161;-84
2021/07/05 14:27:37;;;;;;;2.15;1.48;;;25.60;34.20;;;;;;6283395;22;20208;-85
2021/07/05 14:30:09;;;;;;;2.47;1.30;;;25.30;32.10;;;;;;6255641;22;20486;-86